Terminal Aerodrome Forecast
Issued by NWS Greer, SC

Home | Current Version | Previous Version | Text Only | Print | Product List | Glossary On
Versions: 1 2 3 4 5 6 7 8 9 10 11 12 13 14 15 16 17 18 19 20 21 22 23 24 25 26
000
FTUS42 KGSP 301739
TAFCLT
TAF
KCLT 301739Z 3018/0118 04007KT P6SM SCT027 BKN035
      TEMPO 3021/0101 VRB10G20KT 4SM -TSRA OVC020CB
     FM010100 11010KT 4SM -SHRA OVC007
     FM010600 15011KT 3SM BR VCSH OVC003
     FM011100 18009KT P6SM OVC005
     FM011500 19009KT P6SM OVC020=

USA.gov is the U.S. government's official web portal to all federal, state and local government web resources and services.